Create Custom Reports and Graphics: Custom Report

Anza Map

Map

10 Minute Data

Latest Observation

23 Stations

10 Minute Data | America/Los_Angeles
as of 5/20/22 7:35 AM PDT
Station Date Time Temp (°F) Dew Pt (°F) RH (%) Wind Spd (mph) Wind Dir (°) Wind Gust (mph) Wind Gst Dir (°) Daily Max Temp (°F) Daily Min Temp (°F) Daily Max Wind (mph) Max Wind Dir (°)
Thomas Mountain 5/20/22 0730 47.0   22.8 46.2   13.4 97   71 2.2 ESE | 104 5.3 E | 99 58.4 42.5 17.8 WNW | 285
Red Mountain 5/20/22 0730 44.2   26.3 44.2   7.7 100   71 6.8 WSW | 249 9.4 WSW | 247 52.4 43.7 11.8 WSW | 253
Coyote Canyon 5/20/22 0730 45.9   25.0 45.9   12.0 100   74 23.0 E | 82 30.8 E | 80 50.0 45.3 31.9 E | 85
Pinyon 5/20/22 0730 66.9   4.8 35.5   0.1 31   5 20.6 SW | 232 32.5 WSW | 237 70.0 60.6 37.3 SW | 227
Aguanga Barbara Trail 5/20/22 0730 47.7   22.0 47.7   9.5 100   68 7.1 W | 268 9.8 W | 273 50.3 47.5 11.7 W | 270
SCE Idyllwild Ridge 5/20/22 0730 59.6   2.1 29.8   1.1 32   4 1.9 WSW | 238 6.4 SSE | 164 63.4 59.3 13.4 NNW | 345
SCE Idyllwild Hwy 5/20/22 0730 53.1   2.2 51.2   0.2 93   8 2.4 NNW | 346 5.6 N | 0 56.5 52.5 6.9 NW | 319
SCE Apple Canyon 5/20/22 0730 46.2   25.2 46.0   13.4 99   75 2.0 SE | 133 4.6 S | 177 52.5 43.6 8.9 WNW | 302
SCE Keen Ridge 5/20/22 0730 43.1   24.3 43.1   6.9 100   68 13.6 NW | 305 17.2 NW | 311 50.8 42.6 20.0 WNW | 288
SCE Aguanga 5/20/22 0730 51.8   3.9 51.4   4.2 99   26 3.2 WNW | 296 5.7 NW | 315 54.6 51.5 9.1 NNW | 332
SCE Butterfield Valley 5/20/22 0730 54.2   4.3 53.8   4.1 98   1 3.7 WNW | 293 5.4 WNW | 284 55.4 53.7 7.3 WNW | 285
SCE Anza Rd 5/20/22 0730 54.9   2.5 54.4   2.1 98   2 4.4 W | 268 6.1 W | 273 56.0 54.3 10.1 WSW | 254
SCE Wilson Valley Rd 5/20/22 0730 51.1   6.1 51.1   1.1 100   23 3.7 NW | 310 6.4 WNW | 299 52.6 50.6 7.2 NW | 309
SCE Weber Valley 5/20/22 0730 49.4   13.6 49.3   3.5 100   46 2.5 WNW | 297 5.0 NW | 317 51.0 48.7 7.2 NW | 307
SCE Red Mountain Rd 5/20/22 0730 47.2   20.8 47.2   0.6 100   53 3.0 SW | 228 4.7 SW | 223 49.9 46.8 9.1 SW | 219
SCE Brown Canyon 5/20/22 0730 52.8   3.5 51.6   0.9 96   9 2.6 NW | 312 4.4 NW | 322 55.3 52.4 8.6 WNW | 284
SCE Cedar Ave 5/20/22 0730 55.5   0.1 50.5   0.2 83   1 6.4 SSW | 196 9.4 SSW | 193 57.3 54.9 10.7 S | 184
SCE Anderson Dr 5/20/22 0730 54.7   1.8 51.0   1.4 87   1 2.8 SSW | 212 6.1 SW | 226 56.8 54.1 11.0 WSW | 248
SCE Pachea Trail 5/20/22 0730 52.7   2.1 51.6   3.0 96   3 4.5 SSW | 205 7.2 SSW | 197 54.8 52.1 11.1 SW | 226
SCE Painted Canyon Rd 5/20/22 0730 67.7   5.4 52.2   3.6 58   3 3.2 ENE | 75 5.4 ENE | 67 72.0 65.0 8.0 NNE | 20
Oak Grove 5/20/22 0730 50.3   14.1 50.1   7.5 99   54 5.7 WNW | 298 7.2 WNW | 291 52.2 50.1 8.4 WNW | 298
Chihuahua Valley 5/20/22 0720 46.1   26.1 45.8   10.1 99   73 2.6 SSW | 192 5.3 SSW | 202 51.7 44.0 7.6 E | 98
Sunshine Summit 5/20/22 0730 49.6   13.8 49.6   9.9 100   58 2.9 NW | 312 6.4 NW | 317 50.2 48.3 12.0 WNW | 291
Max     67.7 54.4 100 23.0 - 32.5 - 72.0 65.0 37.3 -
Avg     51.8 47.8 90 5.7 - 9.0 - - - - -
Min     43.1 29.8 31 1.9 - 4.4 - 49.9 42.5 6.9 -